Charlottesville, VA (22902)

1:46 AM EST on February 08, 2016 (GMT -0500)
Linden Town Lofts | | Change Station
CLOSE
Current Station
Personal Weather Station
Location: Charlottesville, VA
Elevation: 341 ft
Nearby Weather Stations

Elev 341 ft 38.01 °N, 78.47 °W | Updated 1 minute ago

Clear
Clear
25.2 °F
Feels Like 25 °F
N
0.0
Wind Variable Wind from WSW

Today
High -- | Low -- °F
--% Chance of Precip.
Yesterday
High -- | Low -- °F
Precip. -- in
Pressure 29.83 in
Visibility 10.0 miles
Clouds Clear
Windchill 25 °F
Dew Point 24 °F
Humidity 96%
Rainfall 0.90 in
Snow Depth Not available.
7:12 AM 5:44 PM
Waning Crescent, 0% visible
METAR KCHO 080553Z AUTO 25004KT 10SM CLR 01/M05 A2983 RMK AO2 SLP102 T00061050 10044 21006 58019
Pressure 29.83 in
Visibility 10.0 miles
Clouds Clear
Windchill 25 °F
Dew Point 24 °F
Humidity 96%
Rainfall 0.90 in
Snow Depth Not available.
7:12 AM 5:44 PM
Waning Crescent, 0% visible
METAR KCHO 080553Z AUTO 25004KT 10SM CLR 01/M05 A2983 RMK AO2 SLP102 T00061050 10044 21006 58019

10-Day Weather Forecast

Almanac

Astronomy

Feb. 08, 2016 Rise Set
Actual Time
Civil Twilight
Nautical Twilight
Astronomical Twilight
Moon
Length of Visible Light
Length of Day
Tomorrow will be .
, % of the Moon is Illuminated

Today's Extremes

State Highs State Lows

Community

WunderPhotos

Upload Photos

1,891,395 photos uploaded!

WunderBlog® & News

Nearby

Air Quality

  Air Quality AQ Index Pollutant
Not available.

Snow Depth

Station Depth Elevation

Earthquake Activity

City Distance Mag. Time & Date
Minimum magnitude displayed is 2.5.

Coastal Water Temperatures

Place Temperature

Stations

Nearby Weather Stations

Station Location Temp. Windchill Dew Point Humidity Wind Precip. Elev Updated Type
                   

Watches & Warnings

There are currently no watches in effect.